createdAt,value
2022-09-30T00:01:54.311Z,12.59
2022-09-30T00:04:24.688Z,12.64
2022-09-30T00:06:54.160Z,12.66
2022-09-30T00:09:22.869Z,12.63
2022-09-30T00:11:51.477Z,12.63
2022-09-30T00:14:22.331Z,12.63
2022-09-30T00:16:50.402Z,12.61
2022-09-30T00:19:18.535Z,12.56
2022-09-30T00:21:46.378Z,12.50
2022-09-30T00:24:14.248Z,12.49
2022-09-30T00:26:42.085Z,12.51
2022-09-30T00:29:10.967Z,12.47
2022-09-30T00:31:39.547Z,12.48
2022-09-30T00:34:08.005Z,12.48
2022-09-30T00:36:43.700Z,12.44
2022-09-30T00:39:16.517Z,12.38
2022-09-30T00:41:47.890Z,12.35
2022-09-30T00:44:43.931Z,12.30
2022-09-30T00:47:45.425Z,12.28
2022-09-30T00:50:22.791Z,12.26
2022-09-30T00:53:20.636Z,12.25
2022-09-30T00:56:07.616Z,12.23
2022-09-30T00:59:02.607Z,12.14
2022-09-30T01:01:32.100Z,12.12
2022-09-30T01:04:06.194Z,12.08
2022-09-30T01:06:33.985Z,12.09
2022-09-30T01:09:01.986Z,12.11
2022-09-30T01:11:30.158Z,12.12
2022-09-30T01:14:03.202Z,12.17
2022-09-30T01:17:00.665Z,12.21
2022-09-30T01:19:39.980Z,12.22
2022-09-30T01:22:16.719Z,12.23
2022-09-30T01:25:07.019Z,12.27
2022-09-30T01:27:55.736Z,12.29
2022-09-30T01:30:57.675Z,12.32
2022-09-30T01:33:40.659Z,12.36
2022-09-30T01:36:52.144Z,12.33
2022-09-30T01:39:37.825Z,12.42
2022-09-30T01:42:40.831Z,12.44
2022-09-30T01:46:03.344Z,12.45
2022-09-30T01:48:53.628Z,12.47
2022-09-30T01:51:45.917Z,12.47
2022-09-30T01:55:03.516Z,12.50
2022-09-30T01:58:09.689Z,12.51
2022-09-30T02:00:42.340Z,12.57
2022-09-30T02:03:24.467Z,12.59
2022-09-30T02:06:06.738Z,12.62
2022-09-30T02:09:03.652Z,12.64
2022-09-30T02:11:38.469Z,12.66
2022-09-30T02:14:18.086Z,12.69
2022-09-30T02:17:39.735Z,12.66
2022-09-30T02:20:22.386Z,12.73
2022-09-30T02:23:04.021Z,12.75
2022-09-30T02:25:41.012Z,12.75
2022-09-30T02:28:17.549Z,12.72
2022-09-30T02:30:50.688Z,12.65
2022-09-30T02:33:32.458Z,12.62
2022-09-30T02:36:08.133Z,12.63
2022-09-30T02:38:44.457Z,12.64
2022-09-30T02:41:23.825Z,12.63
2022-09-30T02:43:53.693Z,12.60
2022-09-30T02:46:32.200Z,12.60
2022-09-30T02:49:26.237Z,12.54
2022-09-30T02:52:02.722Z,12.45
2022-09-30T02:55:25.640Z,12.38
2022-09-30T02:58:11.197Z,12.39
2022-09-30T03:00:39.715Z,12.33
2022-09-30T03:03:38.995Z,12.29
2022-09-30T03:06:07.578Z,12.28
2022-09-30T03:08:35.716Z,12.26
2022-09-30T03:11:05.291Z,12.19
2022-09-30T03:14:00.159Z,12.14
2022-09-30T03:17:05.436Z,12.08
2022-09-30T03:20:08.443Z,12.10
2022-09-30T03:22:45.365Z,12.10
2022-09-30T03:25:16.492Z,12.06
2022-09-30T03:28:16.411Z,12.06
2022-09-30T03:31:37.847Z,12.02
2022-09-30T03:34:43.847Z,11.98
2022-09-30T03:38:16.285Z,11.92
2022-09-30T03:40:53.857Z,11.94
2022-09-30T03:43:41.626Z,11.92
2022-09-30T03:46:27.528Z,11.88
2022-09-30T03:49:01.378Z,11.89
2022-09-30T03:51:30.119Z,11.89
2022-09-30T03:53:59.209Z,11.90
2022-09-30T03:56:30.093Z,11.89
2022-09-30T03:58:58.850Z,11.86
2022-09-30T04:01:27.163Z,11.90
2022-09-30T04:03:55.065Z,11.93
2022-09-30T04:06:25.203Z,11.95
2022-09-30T04:08:54.137Z,11.97
2022-09-30T04:11:21.951Z,12.01
2022-09-30T04:13:49.780Z,12.05
2022-09-30T04:16:17.603Z,12.06
2022-09-30T04:18:45.396Z,12.05
2022-09-30T04:21:15.152Z,12.00
2022-09-30T04:23:43.546Z,11.99
2022-09-30T04:26:15.241Z,11.97
2022-09-30T04:28:43.912Z,11.98
2022-09-30T04:31:13.880Z,11.98
2022-09-30T04:33:41.697Z,11.96
2022-09-30T04:36:10.473Z,11.95
2022-09-30T04:38:38.351Z,11.95
2022-09-30T04:41:07.687Z,11.95
2022-09-30T04:43:35.490Z,11.93
2022-09-30T04:46:03.365Z,11.96
2022-09-30T04:48:31.519Z,12.00
2022-09-30T04:51:02.397Z,12.04
2022-09-30T04:53:30.397Z,12.06
2022-09-30T04:56:01.668Z,12.07
2022-09-30T04:58:34.703Z,12.10
2022-09-30T05:01:11.025Z,12.15
2022-09-30T05:03:39.915Z,12.17
2022-09-30T05:06:08.224Z,12.20
2022-09-30T05:08:36.439Z,12.26
2022-09-30T05:11:12.347Z,12.29
2022-09-30T05:13:41.221Z,12.31
2022-09-30T05:16:10.471Z,12.33
2022-09-30T05:18:45.657Z,12.33
2022-09-30T05:21:20.635Z,12.39
2022-09-30T05:23:48.905Z,12.41
2022-09-30T05:26:16.852Z,12.45
2022-09-30T05:28:44.824Z,12.48
2022-09-30T05:31:13.637Z,12.47
2022-09-30T05:33:42.068Z,12.49
2022-09-30T05:36:14.671Z,12.48
2022-09-30T05:38:42.752Z,12.47
2022-09-30T05:41:15.021Z,12.48
2022-09-30T05:43:48.003Z,12.48
2022-09-30T05:46:20.448Z,12.53
2022-09-30T05:48:48.359Z,12.55
2022-09-30T05:51:16.137Z,12.56
2022-09-30T05:53:44.890Z,12.58
2022-09-30T05:56:12.799Z,12.58
2022-09-30T05:58:42.133Z,12.59
2022-09-30T06:01:14.460Z,12.60
2022-09-30T06:03:46.928Z,12.59
2022-09-30T06:06:15.669Z,12.58
2022-09-30T06:08:44.562Z,12.57
2022-09-30T06:11:18.092Z,12.57
2022-09-30T06:13:47.590Z,12.53
2022-09-30T06:16:18.414Z,12.48
2022-09-30T06:18:46.694Z,12.47
2022-09-30T06:21:17.002Z,12.45
2022-09-30T06:23:45.253Z,12.46
2022-09-30T06:26:14.495Z,12.46
2022-09-30T06:28:43.035Z,12.48
2022-09-30T06:31:11.650Z,12.49
2022-09-30T06:33:39.687Z,12.50
2022-09-30T06:36:07.591Z,12.49
2022-09-30T06:38:37.257Z,12.50
2022-09-30T06:41:06.145Z,12.53
2022-09-30T06:43:41.422Z,12.55
2022-09-30T06:46:17.638Z,12.56
2022-09-30T06:49:06.148Z,12.57
2022-09-30T06:51:38.799Z,12.61
2022-09-30T06:54:07.972Z,12.59
2022-09-30T06:56:37.017Z,12.60
2022-09-30T06:59:04.844Z,12.61
2022-09-30T07:01:32.677Z,12.60
2022-09-30T07:04:02.819Z,12.63
2022-09-30T07:06:31.297Z,12.64
2022-09-30T07:08:59.097Z,12.66
2022-09-30T07:11:26.934Z,12.68
2022-09-30T07:13:55.518Z,12.71
2022-09-30T07:16:25.769Z,12.73
2022-09-30T07:18:54.421Z,12.74
2022-09-30T07:21:22.309Z,12.76
2022-09-30T07:23:52.820Z,12.77
2022-09-30T07:26:24.219Z,12.78
2022-09-30T07:28:52.821Z,12.79
2022-09-30T07:31:33.473Z,12.82
2022-09-30T07:34:07.292Z,12.84
2022-09-30T07:36:37.990Z,12.88
2022-09-30T07:39:09.952Z,12.87
2022-09-30T07:41:40.167Z,12.88
2022-09-30T07:44:14.616Z,12.90
2022-09-30T07:46:44.827Z,12.92
2022-09-30T07:49:25.485Z,12.93
2022-09-30T07:51:58.790Z,12.96
2022-09-30T07:54:31.055Z,12.99
2022-09-30T07:57:16.715Z,13.00
2022-09-30T07:59:44.670Z,13.05
2022-09-30T08:02:18.669Z,13.13
2022-09-30T08:04:47.270Z,13.26
2022-09-30T08:07:18.099Z,13.37
2022-09-30T08:09:46.005Z,13.45
2022-09-30T08:12:13.859Z,13.57
2022-09-30T08:14:41.806Z,13.69
2022-09-30T08:17:09.641Z,13.80
2022-09-30T08:19:38.285Z,13.86
2022-09-30T08:22:06.615Z,13.93
2022-09-30T08:24:34.734Z,13.96
2022-09-30T08:27:02.616Z,14.05
2022-09-30T08:32:18.923Z,14.21
2022-09-30T08:34:46.818Z,14.24
2022-09-30T08:37:14.589Z,14.32
2022-09-30T08:39:43.529Z,14.40
2022-09-30T08:42:36.623Z,14.46
2022-09-30T08:46:07.580Z,14.47
2022-09-30T08:48:50.262Z,14.63
2022-09-30T08:51:45.370Z,14.67
2022-09-30T08:54:22.857Z,14.76
2022-09-30T08:56:51.349Z,14.85
2022-09-30T08:59:30.041Z,14.92
2022-09-30T09:02:21.921Z,14.99
2022-09-30T09:04:54.644Z,15.02
2022-09-30T09:07:33.436Z,15.08
2022-09-30T09:10:24.183Z,15.18
2022-09-30T09:13:09.607Z,15.24
2022-09-30T09:16:18.637Z,15.29
2022-09-30T09:19:11.870Z,15.30
2022-09-30T09:22:01.883Z,15.34
2022-09-30T09:24:40.986Z,15.38
2022-09-30T09:27:54.825Z,15.39
2022-09-30T09:30:25.449Z,15.41
2022-09-30T09:32:58.273Z,15.40
2022-09-30T09:35:55.570Z,15.39
2022-09-30T09:38:56.015Z,15.38
2022-09-30T09:41:33.831Z,15.38
2022-09-30T09:44:19.514Z,15.37
2022-09-30T09:47:05.751Z,15.38
2022-09-30T09:49:37.153Z,15.38
2022-09-30T09:52:13.907Z,15.38
2022-09-30T09:54:52.673Z,15.39
2022-09-30T09:57:24.981Z,15.41
2022-09-30T10:02:31.732Z,15.45
2022-09-30T10:05:03.996Z,15.46
2022-09-30T10:07:34.015Z,15.49
2022-09-30T10:10:23.078Z,15.52
2022-09-30T10:12:51.858Z,15.51
2022-09-30T10:15:26.428Z,15.44
2022-09-30T10:17:59.207Z,15.43
2022-09-30T10:20:36.495Z,15.43
2022-09-30T10:23:31.902Z,15.47
2022-09-30T10:29:05.139Z,15.58
2022-09-30T10:31:42.395Z,15.53
2022-09-30T10:34:30.691Z,15.56
2022-09-30T10:37:03.084Z,15.63
2022-09-30T10:39:36.297Z,15.70
2022-09-30T10:42:07.454Z,15.79
2022-09-30T10:44:56.541Z,15.85
2022-09-30T10:47:27.286Z,15.91
2022-09-30T10:50:05.442Z,15.96
2022-09-30T10:52:56.339Z,16.03
2022-09-30T10:55:34.739Z,16.06
2022-09-30T10:58:25.390Z,16.09
2022-09-30T11:01:19.722Z,16.12
2022-09-30T11:04:24.661Z,16.16
2022-09-30T11:07:01.621Z,16.23
2022-09-30T11:09:46.201Z,16.28
2022-09-30T11:12:45.270Z,16.40
2022-09-30T11:15:24.539Z,16.52
2022-09-30T11:18:05.843Z,16.64
2022-09-30T11:20:54.421Z,16.76
2022-09-30T11:23:36.883Z,16.79
2022-09-30T11:26:40.332Z,16.84
2022-09-30T11:29:44.124Z,16.89
2022-09-30T11:32:55.732Z,16.95
2022-09-30T11:36:01.828Z,16.95
2022-09-30T11:38:48.566Z,16.92
2022-09-30T11:41:38.888Z,16.91
2022-09-30T11:44:51.650Z,16.94
2022-09-30T11:47:26.136Z,16.99
2022-09-30T11:50:08.797Z,17.03
2022-09-30T11:53:18.569Z,17.08
2022-09-30T11:56:35.020Z,17.13
2022-09-30T11:59:13.540Z,17.19
2022-09-30T12:01:46.183Z,17.26
2022-09-30T12:04:29.467Z,17.30
2022-09-30T12:07:09.025Z,17.35
2022-09-30T12:09:48.626Z,17.35
2022-09-30T12:12:19.242Z,17.38
2022-09-30T12:15:01.148Z,17.47
2022-09-30T12:17:44.141Z,17.58
2022-09-30T12:20:53.811Z,17.74
2022-09-30T12:23:55.117Z,17.89
2022-09-30T12:26:22.938Z,17.99
2022-09-30T12:29:32.502Z,18.06
2022-09-30T12:32:25.148Z,18.16
2022-09-30T12:35:43.876Z,18.23
2022-09-30T12:38:51.163Z,18.32
2022-09-30T12:41:49.247Z,18.37
2022-09-30T12:45:14.697Z,18.41
2022-09-30T12:47:57.442Z,18.52
2022-09-30T12:50:42.429Z,18.53
2022-09-30T12:53:39.648Z,18.54
2022-09-30T12:56:13.353Z,18.59
2022-09-30T12:58:48.576Z,18.74
2022-09-30T13:01:23.485Z,18.74
2022-09-30T13:04:00.085Z,18.75
2022-09-30T13:06:47.701Z,18.78
2022-09-30T13:09:22.819Z,18.81
2022-09-30T13:11:56.811Z,18.82
2022-09-30T13:14:43.398Z,18.89
2022-09-30T13:17:11.431Z,18.91
2022-09-30T13:19:47.696Z,18.93
2022-09-30T13:22:21.316Z,18.96
2022-09-30T13:24:58.116Z,19.16
2022-09-30T13:27:50.018Z,19.15
2022-09-30T13:30:18.150Z,19.10
2022-09-30T13:33:02.441Z,19.06
2022-09-30T13:35:33.970Z,19.00
2022-09-30T13:38:14.646Z,18.99
2022-09-30T13:41:02.772Z,18.99
2022-09-30T13:44:03.362Z,18.99
2022-09-30T13:46:59.256Z,18.94
2022-09-30T13:49:43.763Z,18.94
2022-09-30T13:52:28.972Z,18.99
2022-09-30T13:55:04.032Z,19.02
2022-09-30T13:58:03.330Z,19.07
2022-09-30T14:01:03.080Z,19.14
2022-09-30T14:04:04.122Z,19.14
2022-09-30T14:07:10.603Z,19.17
2022-09-30T14:10:29.090Z,19.21
2022-09-30T14:13:27.853Z,19.18
2022-09-30T14:16:48.136Z,19.14
2022-09-30T14:19:46.271Z,19.12
2022-09-30T14:22:15.702Z,19.12
2022-09-30T14:24:43.722Z,19.07
2022-09-30T14:27:20.243Z,19.07
2022-09-30T14:30:02.316Z,19.05
2022-09-30T14:32:54.165Z,19.02
2022-09-30T14:35:31.949Z,18.99
2022-09-30T14:38:28.000Z,18.90
2022-09-30T14:41:14.475Z,18.78
2022-09-30T14:43:46.131Z,18.72
2022-09-30T14:46:26.754Z,18.67
2022-09-30T14:48:59.100Z,18.61
2022-09-30T14:51:29.331Z,18.58
2022-09-30T14:54:02.287Z,18.59
2022-09-30T14:56:35.473Z,18.66
2022-09-30T14:59:34.700Z,18.70
2022-09-30T15:02:20.397Z,18.71
2022-09-30T15:04:56.988Z,18.69
2022-09-30T15:07:27.100Z,18.70
2022-09-30T15:10:01.164Z,18.61
2022-09-30T15:12:29.040Z,18.56
2022-09-30T15:14:59.904Z,18.52
2022-09-30T15:17:37.800Z,18.52
2022-09-30T15:20:31.203Z,18.48
2022-09-30T15:23:03.694Z,18.41
2022-09-30T15:25:31.899Z,18.39
2022-09-30T15:28:00.063Z,18.43
2022-09-30T15:30:29.540Z,18.50
2022-09-30T15:33:04.528Z,18.57
2022-09-30T15:35:36.031Z,18.61
2022-09-30T15:38:26.829Z,18.65
2022-09-30T15:41:05.120Z,18.64
2022-09-30T15:43:37.058Z,18.66
2022-09-30T15:46:25.223Z,18.68
2022-09-30T15:48:59.101Z,18.65
2022-09-30T15:51:39.449Z,18.63
2022-09-30T15:54:16.004Z,18.58
2022-09-30T15:56:44.490Z,18.53
2022-09-30T15:59:14.729Z,18.45
2022-09-30T16:01:46.736Z,18.39
2022-09-30T16:04:17.559Z,18.35
2022-09-30T16:06:53.767Z,18.29
2022-09-30T16:09:34.025Z,18.18
2022-09-30T16:12:13.961Z,18.10
2022-09-30T16:15:06.443Z,18.01
2022-09-30T16:17:39.258Z,17.95
2022-09-30T16:20:14.744Z,17.90
2022-09-30T16:22:42.422Z,17.79
2022-09-30T16:25:31.776Z,17.74
2022-09-30T16:28:14.615Z,17.69
2022-09-30T16:30:49.536Z,17.63
2022-09-30T16:33:17.786Z,17.57
2022-09-30T16:35:47.496Z,17.53
2022-09-30T16:38:18.185Z,17.45
2022-09-30T16:40:46.061Z,17.37
2022-09-30T16:43:13.921Z,17.28
2022-09-30T16:45:42.523Z,17.21
2022-09-30T16:48:18.650Z,17.13
2022-09-30T16:50:56.477Z,17.02
2022-09-30T16:53:24.312Z,16.91
2022-09-30T16:55:52.294Z,16.83
2022-09-30T16:58:20.122Z,16.76
2022-09-30T17:00:48.031Z,16.67
2022-09-30T17:03:18.412Z,16.61
2022-09-30T17:05:53.076Z,16.53
2022-09-30T17:08:23.937Z,16.45
2022-09-30T17:10:51.817Z,16.38
2022-09-30T17:13:19.811Z,16.31
2022-09-30T17:15:50.747Z,16.26
2022-09-30T17:18:19.683Z,16.19
2022-09-30T17:20:52.801Z,16.07
2022-09-30T17:23:22.884Z,16.01
2022-09-30T17:25:51.529Z,15.93
2022-09-30T17:28:19.381Z,15.88
2022-09-30T17:30:49.335Z,15.78
2022-09-30T17:33:19.908Z,15.74
2022-09-30T17:36:02.322Z,15.68
2022-09-30T17:38:30.631Z,15.61
2022-09-30T17:41:17.829Z,15.55
2022-09-30T17:43:45.927Z,15.47
2022-09-30T17:46:19.300Z,15.42
2022-09-30T17:48:47.710Z,15.38
2022-09-30T17:51:16.796Z,15.31
2022-09-30T17:53:45.427Z,15.25
2022-09-30T17:56:20.299Z,15.20
2022-09-30T17:58:50.867Z,15.12
2022-09-30T18:01:21.393Z,15.08
2022-09-30T18:03:53.121Z,15.03
2022-09-30T18:06:21.664Z,15.00
2022-09-30T18:08:55.889Z,14.98
2022-09-30T18:11:26.256Z,14.93
2022-09-30T18:13:59.743Z,14.92
2022-09-30T18:16:30.919Z,14.88
2022-09-30T18:19:00.844Z,14.83
2022-09-30T18:21:30.039Z,14.81
2022-09-30T18:23:59.060Z,14.76
2022-09-30T18:26:33.218Z,14.73
2022-09-30T18:29:03.726Z,14.70
2022-09-30T18:31:37.486Z,14.69
2022-09-30T18:34:06.990Z,14.69
2022-09-30T18:36:37.413Z,14.66
2022-09-30T18:39:05.405Z,14.63
2022-09-30T18:41:35.749Z,14.64
2022-09-30T18:44:03.840Z,14.69
2022-09-30T18:46:32.148Z,14.67
2022-09-30T18:48:59.977Z,14.71
2022-09-30T18:51:28.616Z,14.74
2022-09-30T18:53:59.884Z,14.76
2022-09-30T18:56:31.958Z,14.79
2022-09-30T18:59:04.644Z,14.79
2022-09-30T19:01:34.111Z,14.80
2022-09-30T19:04:03.484Z,14.75
2022-09-30T19:06:31.676Z,14.75
2022-09-30T19:08:59.484Z,14.74
2022-09-30T19:11:30.337Z,14.72
2022-09-30T19:14:01.391Z,14.69
2022-09-30T19:16:37.921Z,14.67
2022-09-30T19:19:10.490Z,14.64
2022-09-30T19:21:39.698Z,14.63
2022-09-30T19:24:09.420Z,14.61
2022-09-30T19:26:39.398Z,14.58
2022-09-30T19:29:09.715Z,14.56
2022-09-30T19:31:38.095Z,14.50
2022-09-30T19:34:06.447Z,14.46
2022-09-30T19:36:46.037Z,14.42
2022-09-30T19:39:17.094Z,14.43
2022-09-30T19:41:46.323Z,14.40
2022-09-30T19:44:18.835Z,14.37
2022-09-30T19:46:55.653Z,14.35
2022-09-30T19:49:24.045Z,14.30
2022-09-30T19:51:52.873Z,14.27
2022-09-30T19:54:35.938Z,14.22
2022-09-30T19:57:05.939Z,14.21
2022-09-30T19:59:34.229Z,14.18
2022-09-30T20:02:02.465Z,14.14
2022-09-30T20:04:30.264Z,14.07
2022-09-30T20:06:58.027Z,14.04
2022-09-30T20:09:25.837Z,14.04
2022-09-30T20:11:53.578Z,13.98
2022-09-30T20:14:39.889Z,13.97
2022-09-30T20:17:07.770Z,13.96
2022-09-30T20:19:35.596Z,13.94
2022-09-30T20:22:04.761Z,13.94
2022-09-30T20:24:33.126Z,13.91
2022-09-30T20:27:00.874Z,13.88
2022-09-30T20:29:28.800Z,13.86
2022-09-30T20:31:57.224Z,13.87
2022-09-30T20:34:25.104Z,13.87
2022-09-30T20:36:52.841Z,13.83
2022-09-30T20:39:21.262Z,13.85
2022-09-30T20:41:50.708Z,13.83
2022-09-30T20:44:19.508Z,13.82
2022-09-30T20:46:47.277Z,13.83
2022-09-30T20:49:15.062Z,13.81
2022-09-30T20:51:42.911Z,13.83
2022-09-30T20:54:10.893Z,13.83
2022-09-30T20:57:02.763Z,13.84
2022-09-30T20:59:26.449Z,13.87
2022-09-30T21:01:54.255Z,13.86
2022-09-30T21:04:22.072Z,13.86
2022-09-30T21:06:49.851Z,13.87
2022-09-30T21:09:17.714Z,13.86
2022-09-30T21:11:45.434Z,13.87
2022-09-30T21:14:18.114Z,13.85
2022-09-30T21:16:46.083Z,13.83
2022-09-30T21:19:13.962Z,13.83
2022-09-30T21:21:41.782Z,13.84
2022-09-30T21:24:09.941Z,13.88
2022-09-30T21:26:37.739Z,13.88
2022-09-30T21:29:05.685Z,13.93
2022-09-30T21:31:35.312Z,13.98
2022-09-30T21:34:04.046Z,14.03
2022-09-30T21:36:32.212Z,14.06
2022-09-30T21:39:02.385Z,14.05
2022-09-30T21:41:32.544Z,14.04
2022-09-30T21:44:01.457Z,14.02
2022-09-30T21:46:30.281Z,13.98
2022-09-30T21:49:16.025Z,14.02
2022-09-30T21:51:43.928Z,14.00
2022-09-30T21:54:13.759Z,13.97
2022-09-30T21:56:43.060Z,13.94
2022-09-30T21:59:12.838Z,13.96
2022-09-30T22:01:40.979Z,13.98
2022-09-30T22:04:09.284Z,13.91
2022-09-30T22:06:37.096Z,13.85
2022-09-30T22:09:05.310Z,13.79
2022-09-30T22:11:33.536Z,13.77
2022-09-30T22:14:01.867Z,13.75
2022-09-30T22:16:36.845Z,13.77
2022-09-30T22:19:07.424Z,13.76
2022-09-30T22:21:37.664Z,13.75
2022-09-30T22:24:08.053Z,13.73
2022-09-30T22:26:37.152Z,13.71
2022-09-30T22:29:11.329Z,13.74
2022-09-30T22:31:39.681Z,13.76
2022-09-30T22:34:29.123Z,13.73
2022-09-30T22:37:15.637Z,13.74
2022-09-30T22:39:43.555Z,13.66
2022-09-30T22:42:11.312Z,13.63
2022-09-30T22:44:39.287Z,13.62
2022-09-30T22:47:09.870Z,13.61
2022-09-30T22:49:37.638Z,13.61
2022-09-30T22:52:06.724Z,13.59
2022-09-30T22:54:36.693Z,13.58
2022-09-30T22:57:07.832Z,13.50
2022-09-30T22:59:39.147Z,13.44
2022-09-30T23:02:07.009Z,13.43
2022-09-30T23:04:34.801Z,13.42
2022-09-30T23:07:02.591Z,13.38
2022-09-30T23:09:31.207Z,13.33
2022-09-30T23:11:59.240Z,13.24
2022-09-30T23:14:27.018Z,13.21
2022-09-30T23:16:54.848Z,13.23
2022-09-30T23:19:22.716Z,13.20
2022-09-30T23:21:50.466Z,13.19
2022-09-30T23:24:18.339Z,13.16
2022-09-30T23:26:46.157Z,13.13
2022-09-30T23:29:15.958Z,13.05
2022-09-30T23:31:43.838Z,13.07
2022-09-30T23:34:12.096Z,13.05
2022-09-30T23:36:40.467Z,13.05
2022-09-30T23:39:18.546Z,13.04
2022-09-30T23:41:47.902Z,13.03
2022-09-30T23:44:18.999Z,12.95
2022-09-30T23:47:06.624Z,12.88
2022-09-30T23:49:38.482Z,12.88
2022-09-30T23:52:12.574Z,12.85
2022-09-30T23:54:42.572Z,12.87
2022-09-30T23:57:11.394Z,12.81
2022-09-30T23:59:39.440Z,12.83
